Time;durP1;ratioP1;P1;durP2;ratioP2;P2;SDS_P1;SDS_P2;PMS_P1;PMS_P2;Temp;Humidity;BMP_temperature;BMP_pressure;BME280_temperature;BME280_humidity;BME280_pressure;Samples;Min_cycle;Max_cycle;Signal;HPM_P1;HPM_P2
2023/07/10 00:01:04;;;;;;;13.27;4.40;;;19.50;99.90;;;;;;5031135;28;20045;-63
2023/07/10 00:03:32;;;;;;;9.15;4.30;;;19.40;99.90;;;;;;5022694;28;20075;-62
2023/07/10 00:06:00;;;;;;;6.05;4.30;;;19.30;99.90;;;;;;5030426;28;20050;-62
2023/07/10 00:08:27;;;;;;;12.20;4.75;;;19.30;99.90;;;;;;5031181;28;20435;-63
2023/07/10 00:10:54;;;;;;;8.85;4.80;;;19.30;99.90;;;;;;5029726;28;20049;-62
2023/07/10 00:13:21;;;;;;;7.97;4.63;;;19.30;99.90;;;;;;5031255;28;20056;-62
2023/07/10 00:15:50;;;;;;;10.63;4.95;;;19.30;99.90;;;;;;5029264;28;20077;-62
2023/07/10 00:18:19;;;;;;;9.52;5.15;;;19.30;99.90;;;;;;5031096;28;20429;-63
2023/07/10 00:20:47;;;;;;;10.32;4.88;;;19.30;99.90;;;;;;5026335;28;20053;-62
2023/07/10 00:23:15;;;;;;;7.70;4.75;;;19.20;99.90;;;;;;5030392;28;20037;-62
2023/07/10 00:25:43;;;;;;;6.70;4.20;;;19.10;99.90;;;;;;5029756;28;20473;-63
2023/07/10 00:28:20;;;;;;;8.88;5.38;;;19.10;99.90;;;;;;5031342;28;20041;-62
2023/07/10 00:30:49;;;;;;;7.40;5.60;;;18.90;99.90;;;;;;5020715;28;20124;-63
2023/07/10 00:33:19;;;;;;;9.93;5.15;;;19.00;99.90;;;;;;5008614;28;20077;-63
2023/07/10 00:35:46;;;;;;;12.82;5.90;;;19.00;99.90;;;;;;5030096;28;20041;-63
2023/07/10 00:38:34;;;;;;;7.40;5.00;;;19.00;99.90;;;;;;5011546;28;20045;-61
2023/07/10 00:41:03;;;;;;;9.68;5.80;;;19.10;99.90;;;;;;4996662;28;20064;-63
2023/07/10 00:43:41;;;;;;;10.23;5.90;;;19.10;99.90;;;;;;5007803;28;20049;-63
2023/07/10 00:46:34;;;;;;;13.63;6.45;;;19.00;99.90;;;;;;5001796;28;20042;-62
2023/07/10 00:49:39;;;;;;;9.68;5.55;;;19.20;99.90;;;;;;5016165;28;20046;-63
2023/07/10 00:52:06;;;;;;;10.32;5.53;;;19.20;99.90;;;;;;5022379;28;20082;-62
2023/07/10 00:54:35;;;;;;;;;;;19.20;99.90;;;;;;5012093;28;20133;-63
2023/07/10 00:57:05;;;;;;;9.27;5.32;;;19.10;99.90;;;;;;5011627;28;19925;-62
2023/07/10 00:59:38;;;;;;;8.27;4.85;;;19.00;99.90;;;;;;5010356;28;20076;-62
2023/07/10 01:02:08;;;;;;;7.65;5.07;;;18.90;99.90;;;;;;5013643;28;20045;-62
2023/07/10 01:04:46;;;;;;;8.93;5.05;;;18.90;99.90;;;;;;5030109;28;20041;-61
2023/07/10 01:07:15;;;;;;;13.48;5.43;;;18.90;99.90;;;;;;5029480;28;20060;-62
2023/07/10 01:09:49;;;;;;;8.85;5.13;;;18.80;99.90;;;;;;5030236;28;20111;-62
2023/07/10 01:12:16;;;;;;;10.18;5.35;;;18.60;99.90;;;;;;5029110;28;20128;-62
2023/07/10 01:14:43;;;;;;;9.40;5.55;;;18.30;99.90;;;;;;5029780;28;20055;-63
2023/07/10 01:17:10;;;;;;;11.43;5.55;;;18.30;99.90;;;;;;5023818;28;20082;-63
2023/07/10 01:19:38;;;;;;;;;;;18.20;99.90;;;;;;5029175;28;20056;-63
2023/07/10 01:22:09;;;;;;;12.35;5.60;;;18.10;99.90;;;;;;5013017;28;19921;-63
2023/07/10 01:24:36;;;;;;;9.02;5.90;;;18.20;99.90;;;;;;5012050;28;20496;-61
2023/07/10 01:27:06;;;;;;;7.68;5.40;;;18.10;99.90;;;;;;5031619;28;20401;-62
2023/07/10 01:29:41;;;;;;;9.68;5.32;;;18.10;99.90;;;;;;5014117;28;20061;-62
2023/07/10 01:32:11;;;;;;;9.90;5.47;;;18.10;99.90;;;;;;5016038;28;20506;-62
2023/07/10 01:34:52;;;;;;;8.38;5.40;;;18.00;99.90;;;;;;5015732;28;20057;-62
2023/07/10 01:37:19;;;;;;;11.77;5.07;;;18.00;99.90;;;;;;5031349;28;20073;-63
2023/07/10 01:39:50;;;;;;;;;;;18.00;99.90;;;;;;5033902;28;20040;-62
2023/07/10 01:42:17;;;;;;;8.10;5.20;;;18.00;99.90;;;;;;5033663;28;19925;-62
2023/07/10 01:44:47;;;;;;;8.25;5.05;;;18.00;99.90;;;;;;5032107;28;20045;-63
2023/07/10 01:47:15;;;;;;;10.52;5.63;;;17.90;99.90;;;;;;5015793;28;20049;-63
2023/07/10 01:49:52;;;;;;;8.50;5.15;;;17.80;99.90;;;;;;5014808;28;20561;-62
2023/07/10 01:52:21;;;;;;;8.23;4.95;;;17.80;99.90;;;;;;5033540;28;20060;-62
2023/07/10 01:54:49;;;;;;;6.88;4.53;;;17.70;99.90;;;;;;5014477;28;20045;-62
2023/07/10 01:57:23;;;;;;;7.10;4.80;;;17.80;99.90;;;;;;5012363;28;20054;-63
2023/07/10 01:59:51;;;;;;;9.82;5.55;;;17.80;99.90;;;;;;5014083;28;20072;-63
2023/07/10 02:02:18;;;;;;;9.00;5.47;;;17.80;99.90;;;;;;5012506;28;20037;-62
2023/07/10 02:04:45;;;;;;;;;;;17.90;99.90;;;;;;5030914;28;20136;-62
2023/07/10 02:07:11;;;;;;;16.70;6.40;;;18.00;99.90;;;;;;5031393;28;20327;-63
2023/07/10 02:09:38;;;;;;;9.18;4.95;;;18.00;99.90;;;;;;5032286;28;20053;-63
2023/07/10 02:12:06;;;;;;;9.18;4.75;;;18.10;99.90;;;;;;5002382;28;20514;-63
2023/07/10 02:14:32;;;;;;;;;;;18.00;99.90;;;;;;5012212;28;20056;-63
2023/07/10 02:16:59;;;;;;;8.57;5.00;;;18.00;99.90;;;;;;5015183;28;20397;-62
2023/07/10 02:19:26;;;;;;;8.75;5.35;;;17.90;99.90;;;;;;5031706;28;20045;-63
2023/07/10 02:21:53;;;;;;;9.63;5.63;;;17.90;99.90;;;;;;5020461;28;20038;-63
2023/07/10 02:24:20;;;;;;;8.63;5.10;;;17.80;99.90;;;;;;5027619;28;20112;-62
2023/07/10 02:26:46;;;;;;;7.57;4.90;;;17.80;99.90;;;;;;5015049;28;20164;-62
2023/07/10 02:29:13;;;;;;;8.27;4.60;;;17.80;99.90;;;;;;5031635;28;20406;-63
2023/07/10 02:31:40;;;;;;;13.00;5.80;;;17.70;99.90;;;;;;4999025;28;20064;-62
2023/07/10 02:34:07;;;;;;;11.77;5.30;;;17.60;99.90;;;;;;5031881;28;20508;-63
2023/07/10 02:36:34;;;;;;;11.77;5.47;;;17.30;99.90;;;;;;5014884;28;20136;-62
2023/07/10 02:39:01;;;;;;;8.23;5.25;;;17.20;99.90;;;;;;5031560;28;20049;-62
2023/07/10 02:41:28;;;;;;;11.82;5.47;;;17.00;99.90;;;;;;5032613;28;20045;-62
2023/07/10 02:43:55;;;;;;;11.07;5.25;;;17.00;99.90;;;;;;5030886;28;20060;-63
2023/07/10 02:46:23;;;;;;;9.65;5.20;;;16.90;99.90;;;;;;5032042;28;20065;-63
2023/07/10 02:48:50;;;;;;;8.48;5.57;;;16.90;99.90;;;;;;5031498;28;21199;-62
2023/07/10 02:51:17;;;;;;;12.98;5.35;;;16.90;99.90;;;;;;5000581;28;20413;-63
2023/07/10 02:53:43;;;;;;;7.40;5.20;;;17.00;99.90;;;;;;5029857;28;20049;-63
2023/07/10 02:56:10;;;;;;;11.90;5.55;;;17.00;99.90;;;;;;5032373;28;20124;-63
2023/07/10 02:58:37;;;;;;;8.88;6.45;;;17.10;99.90;;;;;;5012864;28;20037;-62
2023/07/10 03:01:04;;;;;;;10.63;6.63;;;17.20;99.90;;;;;;5032597;28;20056;-62
2023/07/10 03:03:31;;;;;;;11.18;6.25;;;17.30;99.90;;;;;;5010324;28;20418;-63
2023/07/10 03:06:00;;;;;;;11.57;6.50;;;17.50;99.90;;;;;;5024240;28;20454;-62
2023/07/10 03:08:29;;;;;;;8.95;5.65;;;17.60;99.90;;;;;;5030471;28;20577;-63
2023/07/10 03:11:05;;;;;;;12.20;6.32;;;17.70;99.90;;;;;;5014592;28;20057;-62
2023/07/10 03:13:32;;;;;;;7.82;4.63;;;17.60;99.90;;;;;;5031447;28;20140;-62
2023/07/10 03:16:03;;;;;;;;;;;17.40;99.90;;;;;;5022639;28;20052;-62
2023/07/10 03:18:35;;;;;;;12.73;5.07;;;17.10;99.90;;;;;;5027663;28;20063;-62
2023/07/10 03:21:02;;;;;;;8.93;5.07;;;16.90;99.90;;;;;;5031246;28;20041;-62
2023/07/10 03:23:29;;;;;;;10.75;5.45;;;16.70;99.90;;;;;;5031718;28;20052;-63
2023/07/10 03:25:56;;;;;;;10.52;5.75;;;16.60;99.90;;;;;;5030018;28;20046;-63
2023/07/10 03:28:23;;;;;;;12.02;5.43;;;16.60;99.90;;;;;;5005900;28;20045;-63
2023/07/10 03:30:50;;;;;;;8.07;5.65;;;16.50;99.90;;;;;;5031087;28;20049;-61
2023/07/10 03:33:19;;;;;;;8.45;5.55;;;16.50;99.90;;;;;;5030338;28;20049;-63
2023/07/10 03:35:49;;;;;;;8.20;5.65;;;16.50;99.90;;;;;;5025233;28;20132;-62
2023/07/10 03:38:17;;;;;;;10.60;5.80;;;16.50;99.90;;;;;;5026110;28;20037;-62
2023/07/10 03:40:51;;;;;;;;;;;16.50;99.90;;;;;;5031143;28;20041;-63
2023/07/10 03:43:18;;;;;;;10.60;4.68;;;16.50;99.90;;;;;;5032099;28;19921;-62
2023/07/10 03:45:45;;;;;;;11.57;5.25;;;16.50;99.90;;;;;;5021430;28;20487;-62
2023/07/10 03:48:11;;;;;;;12.40;4.97;;;16.50;99.90;;;;;;5023284;28;20042;-63
2023/07/10 03:50:38;;;;;;;7.65;5.07;;;16.60;99.90;;;;;;5029899;28;20429;-62
2023/07/10 03:53:05;;;;;;;7.68;5.20;;;16.60;99.90;;;;;;5032011;28;20060;-63
2023/07/10 03:55:32;;;;;;;9.75;5.43;;;16.70;99.90;;;;;;5021871;28;20311;-62
2023/07/10 03:57:59;;;;;;;8.90;5.80;;;16.70;99.90;;;;;;5031212;28;20037;-63
2023/07/10 04:00:26;;;;;;;10.30;5.65;;;16.80;99.90;;;;;;5027952;28;20421;-62
2023/07/10 04:02:53;;;;;;;11.65;6.07;;;16.90;99.90;;;;;;5023248;28;20048;-62
2023/07/10 04:05:19;;;;;;;10.43;6.15;;;16.90;99.90;;;;;;5006458;28;20041;-62
2023/07/10 04:07:46;;;;;;;11.95;5.82;;;16.90;99.90;;;;;;5024921;28;20041;-62
2023/07/10 04:10:13;;;;;;;6.57;4.90;;;16.90;99.90;;;;;;5031017;28;20068;-62
2023/07/10 04:12:42;;;;;;;9.43;5.63;;;17.00;99.90;;;;;;5029195;28;20438;-62
2023/07/10 04:15:09;;;;;;;7.88;5.57;;;17.00;99.90;;;;;;5022719;28;20041;-62
2023/07/10 04:17:36;;;;;;;12.38;5.82;;;17.00;99.90;;;;;;5029377;28;20049;-62
2023/07/10 04:20:03;;;;;;;12.25;5.63;;;17.20;99.90;;;;;;5030807;28;20037;-63
2023/07/10 04:22:30;;;;;;;13.43;6.88;;;17.30;99.90;;;;;;5022635;28;20037;-62
2023/07/10 04:25:04;;;;;;;12.13;6.78;;;17.40;99.90;;;;;;5023430;28;20431;-63
2023/07/10 04:27:34;;;;;;;10.90;6.30;;;17.60;99.90;;;;;;5030035;28;20548;-62
2023/07/10 04:30:00;;;;;;;12.15;6.38;;;17.80;99.90;;;;;;5030931;28;20056;-63
2023/07/10 04:32:27;;;;;;;18.95;6.68;;;17.90;99.90;;;;;;5028326;28;20386;-61
2023/07/10 04:34:54;;;;;;;10.70;6.57;;;18.00;99.90;;;;;;5023405;28;20103;-62
2023/07/10 04:37:20;;;;;;;12.77;6.82;;;18.10;99.90;;;;;;5012276;28;20041;-63
2023/07/10 04:39:47;;;;;;;12.10;6.28;;;18.30;99.90;;;;;;5031106;28;20038;-63
2023/07/10 04:42:14;;;;;;;10.82;6.50;;;18.40;99.90;;;;;;5024622;28;20046;-62
2023/07/10 04:44:41;;;;;;;11.50;7.13;;;18.80;99.90;;;;;;5028314;28;20048;-63
2023/07/10 04:47:08;;;;;;;11.95;7.15;;;18.60;99.90;;;;;;5021765;28;20033;-62
2023/07/10 04:49:34;;;;;;;10.93;6.45;;;18.70;99.90;;;;;;5031073;28;20067;-63
2023/07/10 04:52:01;;;;;;;12.20;6.68;;;18.80;99.90;;;;;;5030944;28;20053;-63
2023/07/10 04:54:28;;;;;;;13.57;6.88;;;18.90;99.90;;;;;;5029689;28;20103;-63
2023/07/10 04:56:55;;;;;;;10.38;6.70;;;18.90;99.90;;;;;;5022119;28;20558;-62
2023/07/10 04:59:21;;;;;;;9.68;6.43;;;19.00;99.90;;;;;;5029833;28;20037;-63
2023/07/10 05:01:48;;;;;;;10.40;6.95;;;19.10;99.90;;;;;;5023874;28;20074;-63
2023/07/10 05:04:15;;;;;;;11.45;6.38;;;19.20;99.90;;;;;;5034199;28;20409;-63
2023/07/10 05:06:42;;;;;;;12.30;6.70;;;19.30;99.90;;;;;;5033494;28;20045;-63
2023/07/10 05:09:08;;;;;;;10.63;6.30;;;19.40;99.90;;;;;;5021483;28;20048;-62
2023/07/10 05:11:35;;;;;;;15.98;6.50;;;19.40;99.90;;;;;;5026933;28;20071;-63
2023/07/10 05:14:02;;;;;;;13.02;6.60;;;19.50;99.90;;;;;;5033744;28;20474;-62
2023/07/10 05:16:30;;;;;;;10.43;6.30;;;19.60;99.90;;;;;;5033779;28;20445;-62
2023/07/10 05:18:58;;;;;;;10.10;6.22;;;19.60;99.90;;;;;;5031661;28;20494;-62
2023/07/10 05:21:24;;;;;;;11.45;6.20;;;19.50;99.90;;;;;;5032059;28;20053;-62
2023/07/10 05:23:51;;;;;;;9.77;6.63;;;19.50;99.90;;;;;;5031642;28;20030;-63
2023/07/10 05:26:19;;;;;;;9.32;5.78;;;19.50;99.90;;;;;;5025589;28;20044;-62
2023/07/10 05:28:47;;;;;;;11.30;6.15;;;19.50;99.90;;;;;;5032123;28;20037;-63
2023/07/10 05:31:14;;;;;;;;;;;19.50;99.90;;;;;;5027975;28;20052;-63
2023/07/10 05:33:41;;;;;;;11.55;6.57;;;19.60;99.90;;;;;;5030944;28;20011;-63
2023/07/10 05:36:10;;;;;;;13.65;6.95;;;19.70;99.90;;;;;;5026642;28;20052;-63
2023/07/10 05:38:38;;;;;;;10.93;6.30;;;19.70;99.90;;;;;;5032747;28;20034;-62
2023/07/10 05:41:06;;;;;;;14.27;6.43;;;19.80;99.90;;;;;;5033764;28;20049;-62
2023/07/10 05:43:34;;;;;;;13.23;6.97;;;19.80;99.90;;;;;;5026266;28;20065;-62
2023/07/10 05:46:01;;;;;;;13.55;6.25;;;20.00;99.90;;;;;;5025482;28;20041;-62
2023/07/10 05:48:29;;;;;;;12.88;6.38;;;20.10;99.90;;;;;;5032908;28;20065;-63
2023/07/10 05:50:56;;;;;;;10.35;5.75;;;20.20;99.90;;;;;;5033283;28;20057;-63
2023/07/10 05:53:24;;;;;;;12.35;6.90;;;20.30;99.90;;;;;;5032613;28;20121;-62
2023/07/10 05:55:52;;;;;;;14.07;6.43;;;20.40;99.90;;;;;;5018827;28;20447;-63
2023/07/10 05:58:22;;;;;;;13.77;7.55;;;20.60;99.90;;;;;;5032934;28;20080;-63
2023/07/10 06:00:54;;;;;;;13.48;6.70;;;20.60;99.90;;;;;;5033186;28;20037;-63
2023/07/10 06:03:20;;;;;;;11.15;6.70;;;20.80;99.90;;;;;;5021144;28;20037;-62
2023/07/10 06:05:59;;;;;;;10.93;7.10;;;21.00;99.90;;;;;;5031349;28;20033;-63
2023/07/10 06:08:28;;;;;;;13.30;7.03;;;21.00;99.90;;;;;;5026179;28;20049;-61
2023/07/10 06:10:55;;;;;;;12.60;6.93;;;21.10;99.90;;;;;;5031942;28;20061;-62
2023/07/10 06:13:22;;;;;;;16.05;6.85;;;21.10;99.90;;;;;;5025579;28;20037;-63
2023/07/10 06:15:51;;;;;;;16.33;6.78;;;21.20;99.90;;;;;;5032231;28;20060;-63
2023/07/10 06:18:18;;;;;;;13.25;6.55;;;21.40;99.90;;;;;;5032702;28;20044;-63
2023/07/10 06:20:55;;;;;;;12.75;6.30;;;21.60;99.90;;;;;;5033395;28;20064;-63
2023/07/10 06:23:23;;;;;;;8.53;6.03;;;21.70;99.90;;;;;;5024896;28;20037;-63
2023/07/10 06:25:51;;;;;;;9.07;5.78;;;21.70;99.90;;;;;;5032283;28;20041;-62
2023/07/10 06:28:18;;;;;;;10.55;6.97;;;21.90;99.90;;;;;;5032648;28;20124;-63
2023/07/10 06:30:54;;;;;;;9.02;6.90;;;22.00;99.90;;;;;;5032559;28;20424;-63
2023/07/10 06:33:21;;;;;;;10.70;6.40;;;22.10;99.90;;;;;;5019975;28;20057;-61
2023/07/10 06:35:48;;;;;;;12.18;6.50;;;22.20;99.90;;;;;;5032250;28;20040;-63
2023/07/10 06:38:15;;;;;;;10.85;6.40;;;22.20;99.90;;;;;;5032338;28;20486;-62
2023/07/10 06:40:42;;;;;;;10.70;7.38;;;22.40;99.90;;;;;;5027008;28;20053;-63
2023/07/10 06:43:09;;;;;;;10.45;6.90;;;22.40;99.90;;;;;;5027024;28;20124;-63
2023/07/10 06:45:35;;;;;;;;;;;22.60;99.90;;;;;;5031826;28;20045;-63
2023/07/10 06:48:02;;;;;;;9.23;6.47;;;22.60;99.90;;;;;;5032971;28;19921;-62
2023/07/10 06:50:29;;;;;;;;;;;22.60;99.90;;;;;;5020488;28;20124;-62
2023/07/10 06:52:56;;;;;;;9.93;6.03;;;22.70;99.90;;;;;;5032127;28;19921;-62
2023/07/10 06:55:27;;;;;;;10.82;6.93;;;22.90;99.90;;;;;;5031327;28;20080;-63
2023/07/10 06:57:54;;;;;;;10.80;5.78;;;23.20;99.90;;;;;;5032449;28;20033;-63
2023/07/10 07:00:21;;;;;;;9.02;6.07;;;23.30;99.90;;;;;;5027781;28;20052;-63
2023/07/10 07:02:47;;;;;;;;;;;23.50;99.90;;;;;;5031361;28;20080;-63
2023/07/10 07:05:15;;;;;;;11.77;6.50;;;23.40;99.90;;;;;;5031204;28;20416;-63
2023/07/10 07:07:42;;;;;;;9.30;6.65;;;23.40;99.90;;;;;;5032223;28;20033;-62
2023/07/10 07:10:13;;;;;;;8.98;6.10;;;23.40;99.90;;;;;;5030573;28;20045;-63
2023/07/10 07:12:43;;;;;;;8.00;6.30;;;23.30;99.90;;;;;;5031546;28;20049;-63
2023/07/10 07:15:11;;;;;;;9.95;6.40;;;23.30;99.90;;;;;;5031426;28;20065;-63
2023/07/10 07:17:38;;;;;;;11.30;6.28;;;23.30;99.90;;;;;;5031450;28;20045;-63
2023/07/10 07:20:06;;;;;;;9.40;6.13;;;23.10;99.90;;;;;;5029831;28;20053;-63
2023/07/10 07:22:33;;;;;;;13.02;6.40;;;23.40;99.90;;;;;;5031827;28;20478;-63
2023/07/10 07:25:00;;;;;;;8.75;5.95;;;23.60;99.90;;;;;;5030672;28;20048;-63
2023/07/10 07:27:31;;;;;;;12.95;7.13;;;23.80;99.90;;;;;;5031113;28;20052;-63
2023/07/10 07:30:01;;;;;;;12.82;6.72;;;24.10;99.90;;;;;;5030915;28;20052;-63
2023/07/10 07:32:28;;;;;;;9.43;6.30;;;24.30;99.90;;;;;;5032109;28;20049;-63
2023/07/10 07:34:55;;;;;;;;;;;24.40;99.90;;;;;;5022435;28;20506;-63
2023/07/10 07:37:22;;;;;;;10.15;6.93;;;24.50;99.90;;;;;;5031486;28;19943;-61
2023/07/10 07:39:48;;;;;;;10.60;6.75;;;24.50;99.90;;;;;;5030607;28;20047;-64
2023/07/10 07:42:15;;;;;;;10.75;6.75;;;24.60;99.90;;;;;;5031403;28;20044;-63
2023/07/10 07:44:42;;;;;;;11.52;6.18;;;24.80;99.90;;;;;;5009830;28;20053;-63
2023/07/10 07:47:09;;;;;;;8.57;5.85;;;24.80;99.90;;;;;;5020553;28;20045;-63
2023/07/10 07:49:35;;;;;;;9.40;6.50;;;24.80;99.90;;;;;;5031326;28;20079;-63
2023/07/10 07:52:02;;;;;;;8.85;6.25;;;25.00;99.90;;;;;;5026114;28;20049;-63
2023/07/10 07:54:29;;;;;;;7.80;6.40;;;25.00;99.90;;;;;;5025668;28;20042;-63
2023/07/10 07:56:56;;;;;;;7.93;6.15;;;25.00;99.90;;;;;;5030309;28;20049;-63
2023/07/10 07:59:23;;;;;;;11.95;6.40;;;25.10;99.90;;;;;;5031047;28;20045;-63
2023/07/10 08:01:50;;;;;;;11.38;7.03;;;25.40;99.90;;;;;;5025367;28;20041;-62
2023/07/10 08:04:20;;;;;;;9.52;5.88;;;25.50;99.90;;;;;;5023005;28;20045;-63
2023/07/10 08:06:49;;;;;;;10.55;6.88;;;25.80;99.90;;;;;;5030123;28;20124;-63
2023/07/10 08:09:17;;;;;;;11.82;6.75;;;25.80;99.90;;;;;;5030876;28;20525;-64
2023/07/10 08:11:43;;;;;;;11.52;7.03;;;26.00;99.90;;;;;;5024859;28;20088;-63
2023/07/10 08:14:10;;;;;;;;;;;26.30;99.90;;;;;;5031148;28;20056;-63
2023/07/10 08:16:37;;;;;;;10.38;6.53;;;26.60;99.90;;;;;;5030774;28;19961;-64
2023/07/10 08:19:04;;;;;;;;;;;26.70;99.90;;;;;;5027494;28;20041;-64
2023/07/10 08:21:31;;;;;;;9.38;6.65;;;26.70;99.90;;;;;;5026128;28;20370;-64
2023/07/10 08:23:57;;;;;;;8.85;6.60;;;26.60;99.90;;;;;;5030910;28;20049;-64
2023/07/10 08:26:24;;;;;;;12.27;6.80;;;26.20;99.90;;;;;;5030872;28;20034;-64
2023/07/10 08:28:51;;;;;;;10.35;6.82;;;26.20;99.90;;;;;;5029560;28;20041;-64
2023/07/10 08:31:18;;;;;;;12.40;6.50;;;26.50;99.90;;;;;;5031144;28;20049;-63
2023/07/10 08:33:44;;;;;;;;;;;26.50;99.90;;;;;;5030376;28;20452;-64
2023/07/10 08:36:11;;;;;;;11.88;6.68;;;26.50;99.90;;;;;;5031489;28;20313;-63
2023/07/10 08:38:39;;;;;;;11.63;6.45;;;26.50;99.90;;;;;;5033898;28;20049;-63
2023/07/10 08:41:20;;;;;;;11.73;6.55;;;26.50;99.90;;;;;;5035147;28;20057;-63
2023/07/10 08:43:48;;;;;;;10.23;6.30;;;26.30;99.90;;;;;;5027136;28;20069;-63
2023/07/10 08:46:19;;;;;;;11.55;6.45;;;26.30;99.90;;;;;;5027967;28;20045;-63
2023/07/10 08:48:59;;;;;;;15.27;6.63;;;26.60;99.90;;;;;;5033149;28;20037;-63
2023/07/10 08:51:32;;;;;;;8.85;6.30;;;27.00;99.90;;;;;;5034452;28;20045;-64
2023/07/10 08:54:09;;;;;;;9.80;6.45;;;27.00;99.90;;;;;;5034315;28;20604;-63
2023/07/10 08:56:47;;;;;;;9.63;6.38;;;27.20;99.90;;;;;;5029355;28;20495;-63
2023/07/10 08:59:20;;;;;;;9.15;6.55;;;27.40;99.90;;;;;;5034990;28;20049;-63
2023/07/10 09:01:47;;;;;;;12.35;6.90;;;27.40;99.90;;;;;;5033766;28;20049;-64
2023/07/10 09:04:18;;;;;;;10.40;6.65;;;27.60;99.90;;;;;;5034685;28;20076;-64
2023/07/10 09:06:48;;;;;;;9.38;7.15;;;27.70;99.90;;;;;;5032903;28;20045;-64
2023/07/10 09:09:33;;;;;;;12.65;6.80;;;27.70;99.90;;;;;;5010600;28;20049;-63
2023/07/10 09:12:10;;;;;;;10.77;7.00;;;27.70;99.90;;;;;;5032498;28;20052;-64
2023/07/10 09:15:02;;;;;;;11.63;7.53;;;27.80;99.90;;;;;;5024016;28;20037;-64
2023/07/10 09:17:55;;;;;;;11.48;7.28;;;27.90;99.90;;;;;;5032982;28;20045;-63
2023/07/10 09:20:24;;;;;;;15.88;7.65;;;27.60;99.90;;;;;;5034380;28;20128;-64
2023/07/10 09:23:00;;;;;;;12.65;7.38;;;27.40;99.90;;;;;;5029471;28;20045;-63
2023/07/10 09:25:27;;;;;;;14.00;7.80;;;27.80;99.90;;;;;;5033132;28;20490;-63
2023/07/10 09:27:55;;;;;;;10.95;7.28;;;27.90;99.90;;;;;;5033964;28;20391;-64
2023/07/10 09:30:50;;;;;;;13.77;7.85;;;28.00;99.90;;;;;;5031224;28;20052;-64
2023/07/10 09:33:17;;;;;;;10.27;7.45;;;28.00;99.90;;;;;;5028535;28;20041;-64
2023/07/10 09:35:43;;;;;;;;;;;27.90;99.90;;;;;;5033150;28;20041;-64
2023/07/10 09:38:18;;;;;;;11.70;7.78;;;27.90;99.90;;;;;;5033513;28;19925;-63
2023/07/10 09:40:48;;;;;;;10.10;6.82;;;27.70;99.90;;;;;;5033008;28;21146;-64
2023/07/10 09:43:21;;;;;;;9.38;6.90;;;27.50;99.90;;;;;;5028477;28;20053;-63
2023/07/10 09:45:52;;;;;;;14.73;8.02;;;27.40;99.90;;;;;;5031063;28;20116;-63
2023/07/10 09:48:35;;;;;;;12.30;7.18;;;27.00;99.90;;;;;;5031452;28;20069;-63
2023/07/10 09:51:11;;;;;;;12.43;7.63;;;26.60;99.90;;;;;;5033356;28;20046;-64
2023/07/10 09:53:48;;;;;;;10.60;7.43;;;26.20;99.90;;;;;;5027689;28;20064;-64
2023/07/10 09:56:29;;;;;;;11.70;7.53;;;26.10;99.90;;;;;;5033030;28;20041;-63
2023/07/10 09:58:56;;;;;;;14.20;7.40;;;25.90;99.90;;;;;;5033676;28;20486;-63
2023/07/10 10:01:25;;;;;;;13.93;6.57;;;25.70;99.90;;;;;;5030679;28;20487;-63
2023/07/10 10:03:54;;;;;;;11.15;6.38;;;25.30;99.90;;;;;;5032675;28;20037;-63
2023/07/10 10:06:26;;;;;;;11.65;6.45;;;25.20;99.90;;;;;;5032242;28;20033;-63
2023/07/10 10:08:54;;;;;;;12.75;6.50;;;25.10;99.90;;;;;;5033546;28;20120;-63
2023/07/10 10:11:36;;;;;;;12.90;5.38;;;24.80;99.90;;;;;;5027629;28;20052;-63
2023/07/10 10:14:09;;;;;;;13.60;5.85;;;24.70;99.90;;;;;;5025744;28;20420;-61
2023/07/10 10:16:45;;;;;;;8.60;5.15;;;24.60;99.90;;;;;;5032097;28;20045;-63
2023/07/10 10:19:43;;;;;;;13.30;5.90;;;24.50;99.90;;;;;;5033040;28;20049;-63
2023/07/10 10:22:11;;;;;;;12.73;6.63;;;24.50;99.90;;;;;;5016701;28;20136;-63
2023/07/10 10:24:39;;;;;;;9.95;6.25;;;24.60;99.90;;;;;;5016752;28;20482;-63
2023/07/10 10:27:23;;;;;;;12.68;6.50;;;24.70;99.90;;;;;;5032150;28;20049;-63
2023/07/10 10:30:07;;;;;;;12.57;6.25;;;24.90;99.90;;;;;;5025449;28;20056;-63
2023/07/10 10:32:49;;;;;;;13.70;6.18;;;25.10;99.90;;;;;;5028629;28;20068;-62
2023/07/10 10:35:43;;;;;;;11.43;5.45;;;25.30;99.90;;;;;;5032634;28;20042;-63
2023/07/10 10:38:38;;;;;;;9.43;5.05;;;25.50;99.90;;;;;;5033235;28;20052;-63
2023/07/10 10:41:26;;;;;;;9.75;5.43;;;25.80;99.90;;;;;;5009566;28;20052;-63
2023/07/10 10:44:00;;;;;;;11.88;5.40;;;26.10;99.90;;;;;;5026483;28;20045;-63
2023/07/10 10:46:42;;;;;;;12.40;4.97;;;26.60;99.90;;;;;;5031530;28;20490;-63
2023/07/10 10:49:38;;;;;;;9.27;4.90;;;26.70;99.90;;;;;;5032199;28;20485;-63
2023/07/10 10:52:40;;;;;;;11.40;5.85;;;26.80;99.90;;;;;;5030544;28;20052;-63
2023/07/10 10:55:47;;;;;;;11.90;5.95;;;26.80;99.90;;;;;;5011156;28;20053;-62
2023/07/10 10:58:27;;;;;;;8.70;5.22;;;27.00;99.90;;;;;;4998280;28;20565;-63
2023/07/10 11:01:12;;;;;;;8.95;5.35;;;27.30;99.90;;;;;;5031925;28;20059;-63
2023/07/10 11:03:44;;;;;;;13.68;4.90;;;27.50;99.90;;;;;;5028814;28;20041;-64
2023/07/10 11:06:26;;;;;;;12.15;5.45;;;27.70;99.90;;;;;;5032025;28;20049;-64
2023/07/10 11:08:56;;;;;;;7.20;5.22;;;27.90;99.90;;;;;;5031740;28;20041;-64
2023/07/10 11:11:34;;;;;;;11.90;5.68;;;28.00;99.90;;;;;;5031870;28;20064;-63
2023/07/10 11:14:03;;;;;;;9.88;4.90;;;27.70;99.90;;;;;;5031138;28;20045;-63
2023/07/10 11:16:32;;;;;;;9.38;5.60;;;27.40;99.90;;;;;;5031372;28;20045;-64
2023/07/10 11:19:02;;;;;;;6.82;5.20;;;27.20;99.90;;;;;;5030577;28;20046;-61
2023/07/10 11:21:32;;;;;;;11.48;5.82;;;27.30;99.90;;;;;;5032075;28;20049;-63
2023/07/10 11:24:15;;;;;;;11.68;5.85;;;27.40;99.90;;;;;;5031121;28;20096;-63
2023/07/10 11:26:42;;;;;;;9.13;5.30;;;27.40;99.90;;;;;;5031741;28;20045;-63
2023/07/10 11:29:52;;;;;;;12.18;5.72;;;27.30;99.90;;;;;;5027354;28;20038;-63
2023/07/10 11:32:20;;;;;;;8.90;5.32;;;27.00;99.90;;;;;;4968318;28;20495;-64
2023/07/10 11:35:13;;;;;;;9.57;5.88;;;26.80;99.90;;;;;;5023117;28;20063;-63
2023/07/10 11:37:47;;;;;;;10.60;5.72;;;27.00;99.90;;;;;;5030322;28;20076;-63
2023/07/10 11:40:23;;;;;;;9.00;5.75;;;27.40;99.90;;;;;;5031759;28;20125;-63
2023/07/10 11:42:50;;;;;;;9.40;5.53;;;27.70;99.90;;;;;;5023376;28;20115;-63
2023/07/10 11:45:17;;;;;;;10.38;6.13;;;28.10;99.90;;;;;;5030949;28;20041;-63
2023/07/10 11:47:44;;;;;;;8.77;5.78;;;28.40;99.90;;;;;;5030372;28;20037;-63
2023/07/10 11:50:22;;;;;;;13.10;5.75;;;28.60;99.90;;;;;;5031682;28;20076;-64
2023/07/10 11:53:22;;;;;;;12.70;5.75;;;28.90;99.90;;;;;;5022856;28;20056;-62
2023/07/10 11:55:54;;;;;;;13.27;6.53;;;29.20;99.90;;;;;;5022969;28;20045;-63
2023/07/10 11:58:27;;;;;;;9.25;5.38;;;29.20;99.90;;;;;;5029143;28;20041;-63
2023/07/10 12:01:03;;;;;;;12.80;5.57;;;29.30;99.70;;;;;;5021950;28;20060;-64
2023/07/10 12:03:34;;;;;;;10.43;5.43;;;29.50;99.50;;;;;;5022527;28;20121;-64
2023/07/10 12:06:00;;;;;;;9.43;5.63;;;29.60;98.10;;;;;;5021662;28;20478;-63
2023/07/10 12:08:31;;;;;;;10.32;5.45;;;29.70;98.40;;;;;;5030803;28;20433;-64
2023/07/10 12:10:59;;;;;;;14.27;5.80;;;29.80;98.50;;;;;;5028254;28;20041;-64
2023/07/10 12:13:29;;;;;;;6.97;5.40;;;30.00;97.90;;;;;;5029309;28;20037;-64
2023/07/10 12:16:09;;;;;;;10.30;5.78;;;30.10;97.50;;;;;;5015936;28;20071;-64
2023/07/10 12:18:38;;;;;;;12.77;5.82;;;30.10;97.70;;;;;;5023933;28;20084;-64
2023/07/10 12:21:19;;;;;;;10.68;5.85;;;30.10;97.40;;;;;;5026777;28;20049;-64
2023/07/10 12:24:00;;;;;;;12.52;5.75;;;30.20;97.00;;;;;;5031110;28;20048;-64
2023/07/10 12:26:26;;;;;;;9.43;5.22;;;30.40;96.90;;;;;;5030580;28;20045;-64
2023/07/10 12:29:15;;;;;;;7.33;5.50;;;30.60;95.70;;;;;;5029432;28;20041;-63
2023/07/10 12:31:42;;;;;;;8.30;5.28;;;30.70;95.30;;;;;;5030652;28;20120;-63
2023/07/10 12:34:25;;;;;;;12.70;5.22;;;30.80;96.50;;;;;;5029882;28;20046;-63
2023/07/10 12:36:55;;;;;;;10.40;5.90;;;30.80;96.00;;;;;;5021779;28;20033;-64
2023/07/10 12:39:22;;;;;;;7.68;5.05;;;30.80;95.90;;;;;;5030918;28;20049;-64
2023/07/10 12:41:54;;;;;;;7.35;5.13;;;30.90;96.30;;;;;;5030281;28;20406;-64
2023/07/10 12:44:23;;;;;;;7.45;5.30;;;30.90;96.30;;;;;;5029745;28;20076;-64
2023/07/10 12:47:12;;;;;;;12.27;5.50;;;30.80;94.30;;;;;;5012892;28;20050;-64
2023/07/10 12:49:51;;;;;;;9.55;5.47;;;31.00;93.80;;;;;;5030273;28;20041;-64
2023/07/10 12:52:20;;;;;;;6.95;5.28;;;31.20;94.60;;;;;;5030149;28;20072;-64
2023/07/10 12:54:51;;;;;;;12.23;5.30;;;31.40;94.40;;;;;;5029697;28;20556;-64
2023/07/10 12:57:22;;;;;;;6.68;4.93;;;31.40;94.30;;;;;;5030810;28;20108;-64
2023/07/10 12:59:55;;;;;;;9.98;5.28;;;31.40;94.20;;;;;;5029868;28;20516;-64
2023/07/10 13:02:25;;;;;;;7.97;5.07;;;31.50;95.00;;;;;;5030473;28;20037;-64
2023/07/10 13:04:58;;;;;;;10.82;5.82;;;31.60;95.00;;;;;;5029444;28;20041;-64